Time;durP1;ratioP1;P1;durP2;ratioP2;P2;SDS_P1;SDS_P2;PMS_P1;PMS_P2;Temp;Humidity;BMP_temperature;BMP_pressure;BME280_temperature;BME280_humidity;BME280_pressure;Samples;Min_cycle;Max_cycle;Signal;HPM_P1;HPM_P2
2021/11/04 00:00:49;;;;;;;58.53;33.23;;;;;;;9.77;87.82;99831.69;5017085;28;20172;-73
2021/11/04 00:03:15;;;;;;;56.83;32.87;;;;;;;9.17;89.32;99816.84;4999662;28;20173;-73
2021/11/04 00:05:40;;;;;;;61.33;34.50;;;;;;;9.44;89.27;99830.22;4999296;28;20177;-72
2021/11/04 00:08:05;;;;;;;59.43;34.43;;;;;;;8.68;92.71;99827.03;4999251;28;20231;-73
2021/11/04 00:10:32;;;;;;;73.13;35.87;;;;;;;8.66;93.57;99840.44;4999646;28;20631;-73
2021/11/04 00:12:58;;;;;;;66.20;34.60;;;;;;;9.22;90.85;99833.38;4999210;28;20201;-73
2021/11/04 00:15:23;;;;;;;68.33;34.30;;;;;;;9.60;89.85;99835.41;4999199;28;20317;-73
2021/11/04 00:17:49;;;;;;;66.07;33.97;;;;;;;9.35;89.81;99826.34;4998876;28;20268;-73
2021/11/04 00:20:16;;;;;;;64.40;34.13;;;;;;;9.29;89.42;99829.41;4982175;28;20201;-73
2021/11/04 00:22:42;;;;;;;59.47;33.83;;;;;;;9.29;89.60;99833.84;4999074;28;20256;-73
2021/11/04 00:25:07;;;;;;;57.17;33.70;;;;;;;9.43;89.19;99844.50;4998712;28;20207;-74
2021/11/04 00:27:33;;;;;;;62.23;34.83;;;;;;;9.33;90.52;99840.72;5016279;28;20189;-74
2021/11/04 00:29:58;;;;;;;58.80;32.60;;;;;;;9.79;88.69;99841.28;4997060;28;20240;-74
2021/11/04 00:32:24;;;;;;;65.73;34.47;;;;;;;9.53;89.16;99834.97;4982381;28;20634;-74
2021/11/04 00:34:49;;;;;;;62.43;34.93;;;;;;;9.33;89.73;99835.41;4998134;28;20201;-74
2021/11/04 00:37:14;;;;;;;66.23;35.23;;;;;;;9.50;88.48;99831.63;4998119;28;20657;-73
2021/11/04 00:39:40;;;;;;;63.63;35.53;;;;;;;8.91;90.17;99806.97;5015994;28;20369;-74
2021/11/04 00:42:05;;;;;;;62.70;36.13;;;;;;;9.11;91.53;99813.72;5015943;28;20177;-73
2021/11/04 00:44:30;;;;;;;66.90;37.03;;;;;;;9.41;90.48;99811.78;4998225;28;20219;-74
2021/11/04 00:46:56;;;;;;;78.43;40.53;;;;;;;9.26;90.23;99799.44;5015651;28;20177;-74
2021/11/04 00:49:21;;;;;;;77.50;38.90;;;;;;;9.28;89.34;99789.53;4997976;28;20651;-73
2021/11/04 00:51:47;;;;;;;73.93;40.23;;;;;;;9.01;89.63;99776.19;4998623;28;20193;-74
2021/11/04 00:54:14;;;;;;;72.13;39.80;;;;;;;9.57;89.77;99782.34;4998075;28;20197;-74
2021/11/04 00:56:39;;;;;;;85.43;43.30;;;;;;;8.99;90.85;99775.44;4998222;28;20181;-73
2021/11/04 00:59:05;;;;;;;95.23;43.63;;;;;;;8.70;91.21;99762.13;4998013;28;20546;-74
2021/11/04 01:01:30;;;;;;;83.60;43.63;;;;;;;9.23;90.49;99779.19;4998078;28;20675;-74
2021/11/04 01:03:55;;;;;;;86.57;43.20;;;;;;;9.30;90.13;99785.00;5015319;28;20180;-73
2021/11/04 01:06:22;;;;;;;87.77;44.03;;;;;;;9.20;89.27;99771.41;5015859;28;20184;-74
2021/11/04 01:08:48;;;;;;;89.30;44.87;;;;;;;9.09;89.61;99774.75;4997926;28;20696;-73
2021/11/04 01:11:15;;;;;;;100.33;45.57;;;;;;;9.25;89.83;99787.94;4981657;28;20173;-73
2021/11/04 01:13:40;;;;;;;88.20;43.87;;;;;;;9.13;89.58;99783.38;4981778;28;20209;-73
2021/11/04 01:16:06;;;;;;;97.60;47.43;;;;;;;9.25;90.86;99792.41;5015272;28;20545;-74
2021/11/04 01:18:31;;;;;;;87.43;43.90;;;;;;;9.52;88.29;99790.63;5015258;28;20216;-73
2021/11/04 01:20:57;;;;;;;91.87;45.60;;;;;;;9.42;88.00;99788.66;5015380;28;20172;-74
2021/11/04 01:23:22;;;;;;;114.93;49.03;;;;;;;9.40;88.42;99791.44;4997717;28;20656;-72
2021/11/04 01:25:47;;;;;;;124.83;51.90;;;;;;;9.00;89.19;99783.31;4981527;28;20604;-73
2021/11/04 01:28:15;;;;;;;127.10;52.53;;;;;;;9.15;90.03;99775.31;5014940;28;20177;-73
2021/11/04 01:30:40;;;;;;;138.53;55.23;;;;;;;8.86;90.72;99774.47;4998872;28;20227;-73
2021/11/04 01:33:06;;;;;;;144.10;55.67;;;;;;;8.78;90.31;99767.84;5016586;28;20589;-73
2021/11/04 01:35:31;;;;;;;144.20;57.10;;;;;;;8.72;90.50;99762.03;4999132;28;20205;-73
2021/11/04 01:38:00;;;;;;;155.70;59.10;;;;;;;8.99;90.14;99762.97;4997327;28;20633;-73
2021/11/04 01:40:26;;;;;;;150.33;58.00;;;;;;;8.69;91.21;99756.91;5014489;28;20268;-73
2021/11/04 01:42:51;;;;;;;152.57;57.37;;;;;;;8.96;91.52;99757.84;4997361;28;20205;-72
2021/11/04 01:45:17;;;;;;;137.03;53.60;;;;;;;8.99;89.66;99747.00;4997363;28;20333;-73
2021/11/04 01:47:45;;;;;;;131.03;54.87;;;;;;;8.84;90.53;99742.66;5015285;28;20173;-74
2021/11/04 01:50:12;;;;;;;127.97;50.50;;;;;;;8.62;91.79;99726.34;4981318;28;20216;-72
2021/11/04 01:52:37;;;;;;;127.70;54.60;;;;;;;8.32;92.44;99721.91;4997583;28;20687;-73
2021/11/04 01:55:02;;;;;;;137.27;52.93;;;;;;;8.45;92.66;99738.84;4981457;28;20213;-74
2021/11/04 01:57:28;;;;;;;123.37;49.57;;;;;;;8.90;90.48;99744.91;4997584;28;20181;-72
2021/11/04 01:59:53;;;;;;;123.80;51.63;;;;;;;8.77;90.74;99746.66;5014202;28;20665;-71
2021/11/04 02:02:20;;;;;;;119.00;50.60;;;;;;;9.18;89.29;99744.03;4996611;28;20183;-73
2021/11/04 02:05:02;;;;;;;121.83;52.53;;;;;;;9.09;89.07;99734.81;4980447;28;20260;-72
2021/11/04 02:07:51;;;;;;;113.63;47.37;;;;;;;9.25;89.27;99737.34;5014672;28;20499;-73
2021/11/04 02:10:25;;;;;;;102.30;46.33;;;;;;;9.00;90.06;99734.56;4980630;28;20204;-72
2021/11/04 02:13:02;;;;;;;89.97;44.20;;;;;;;9.11;89.28;99741.84;4981000;28;20692;-73
2021/11/04 02:15:29;;;;;;;86.53;44.97;;;;;;;9.13;88.39;99738.13;4996589;28;20165;-73
2021/11/04 02:17:56;;;;;;;83.67;42.43;;;;;;;9.17;89.03;99741.47;4996690;28;20183;-73
2021/11/04 02:20:38;;;;;;;87.63;43.10;;;;;;;9.46;88.56;99753.75;4997153;28;20205;-73
2021/11/04 02:23:08;;;;;;;72.43;39.17;;;;;;;9.08;88.87;99733.13;4999650;28;20164;-73
2021/11/04 02:25:33;;;;;;;82.30;41.10;;;;;;;9.20;89.64;99719.97;4999928;28;20181;-74
2021/11/04 02:28:01;;;;;;;73.53;39.03;;;;;;;9.23;88.83;99711.78;4981432;28;20183;-73
2021/11/04 02:30:29;;;;;;;71.17;38.27;;;;;;;8.82;89.06;99693.13;4980404;28;20175;-73
2021/11/04 02:32:55;;;;;;;73.37;37.17;;;;;;;9.29;88.96;99709.59;4996534;28;20180;-73
2021/11/04 02:35:21;;;;;;;71.30;39.57;;;;;;;8.46;91.55;99695.34;4996773;28;20252;-74
2021/11/04 02:37:47;;;;;;;72.67;39.33;;;;;;;9.08;89.92;99709.16;4997118;28;20180;-73
2021/11/04 02:40:14;;;;;;;78.57;39.67;;;;;;;9.06;89.84;99711.06;4996383;28;20246;-73
2021/11/04 02:42:40;;;;;;;72.53;38.33;;;;;;;9.15;88.81;99714.94;4995819;28;20181;-73
2021/11/04 02:45:06;;;;;;;68.40;35.33;;;;;;;9.55;87.31;99713.19;4995989;28;20195;-73
2021/11/04 02:47:32;;;;;;;68.13;36.40;;;;;;;8.79;90.41;99696.84;4995759;28;20184;-73
2021/11/04 02:49:57;;;;;;;74.33;38.03;;;;;;;8.86;89.03;99698.16;4995680;28;20216;-73
2021/11/04 02:52:23;;;;;;;73.33;38.33;;;;;;;9.21;89.22;99709.22;4979078;28;20177;-73
2021/11/04 02:54:53;;;;;;;67.97;36.80;;;;;;;9.67;87.97;99714.19;5013255;28;20613;-72
2021/11/04 02:57:18;;;;;;;66.17;37.30;;;;;;;8.73;90.95;99710.53;4995835;28;20639;-72
2021/11/04 02:59:43;;;;;;;66.63;36.33;;;;;;;9.30;88.72;99713.09;5013179;28;20196;-73
2021/11/04 03:02:09;;;;;;;64.23;36.37;;;;;;;9.49;88.47;99710.94;4995733;28;20231;-73
2021/11/04 03:04:34;;;;;;;63.00;35.00;;;;;;;8.57;90.62;99677.91;4995631;28;20173;-72
2021/11/04 03:07:01;;;;;;;65.60;37.40;;;;;;;9.41;89.99;99713.25;5013325;28;20173;-73
2021/11/04 03:09:26;;;;;;;63.53;37.10;;;;;;;9.62;88.72;99703.81;5013184;28;20262;-73
2021/11/04 03:11:51;;;;;;;66.87;38.67;;;;;;;9.00;90.00;99687.50;4995560;28;20652;-73
2021/11/04 03:14:17;;;;;;;73.00;39.23;;;;;;;9.01;89.48;99697.19;4995213;28;20231;-73
2021/11/04 03:16:45;;;;;;;73.37;40.20;;;;;;;9.74;87.96;99704.81;4995366;28;20180;-72
2021/11/04 03:19:11;;;;;;;69.97;39.93;;;;;;;9.66;87.25;99699.13;4979267;28;20204;-73
2021/11/04 03:21:39;;;;;;;69.37;37.57;;;;;;;9.56;89.29;99706.91;4979243;28;20584;-73
2021/11/04 03:24:06;;;;;;;64.03;37.07;;;;;;;9.70;88.25;99696.19;4995677;28;20255;-73
2021/11/04 03:26:35;;;;;;;59.83;36.57;;;;;;;9.33;88.76;99691.59;4979166;28;20185;-74
2021/11/04 03:29:01;;;;;;;58.10;36.23;;;;;;;9.23;90.05;99690.47;4995600;28;20254;-73
2021/11/04 03:31:26;;;;;;;56.83;34.50;;;;;;;9.55;88.83;99691.88;4995415;28;20241;-73
2021/11/04 03:33:52;;;;;;;61.37;35.30;;;;;;;9.50;88.78;99691.31;4995318;28;20565;-73
2021/11/04 03:36:22;;;;;;;60.97;34.73;;;;;;;9.70;88.06;99685.53;4995367;28;20637;-73
2021/11/04 03:38:48;;;;;;;57.50;34.67;;;;;;;9.60;88.07;99676.44;4995300;28;20657;-73
2021/11/04 03:41:15;;;;;;;57.10;35.33;;;;;;;9.65;88.21;99668.97;4979203;28;20201;-74
2021/11/04 03:43:42;;;;;;;51.47;31.50;;;;;;;9.29;89.25;99659.00;4995224;28;20181;-73
2021/11/04 03:46:07;;;;;;;49.50;31.77;;;;;;;8.94;90.51;99661.31;4995204;28;20518;-73
2021/11/04 03:48:38;;;;;;;53.00;32.03;;;;;;;9.68;88.82;99659.94;4978999;28;20213;-74
2021/11/04 03:51:04;;;;;;;50.20;31.27;;;;;;;8.98;91.05;99651.31;4995453;28;20171;-74
2021/11/04 03:53:29;;;;;;;50.87;31.20;;;;;;;8.85;91.33;99655.69;4995133;28;20209;-73
2021/11/04 03:55:55;;;;;;;46.07;31.57;;;;;;;9.36;90.84;99657.63;4979099;28;20541;-73
2021/11/04 03:58:21;;;;;;;48.77;30.23;;;;;;;9.09;90.78;99644.31;4995217;28;20201;-74
2021/11/04 04:00:46;;;;;;;49.17;31.47;;;;;;;9.21;90.48;99641.78;4978951;28;20231;-73
2021/11/04 04:03:12;;;;;;;45.67;30.10;;;;;;;9.33;91.35;99649.84;4996212;28;20185;-74
2021/11/04 04:05:37;;;;;;;45.03;29.20;;;;;;;9.29;89.96;99663.44;4998806;28;20596;-73
2021/11/04 04:08:03;;;;;;;47.67;30.43;;;;;;;9.19;89.82;99644.56;4982255;28;20234;-72
2021/11/04 04:10:31;;;;;;;43.33;29.60;;;;;;;9.53;89.04;99642.31;5016288;28;20223;-73
2021/11/04 04:12:57;;;;;;;46.87;30.47;;;;;;;9.20;88.54;99629.44;5016057;28;20181;-74
2021/11/04 04:15:22;;;;;;;43.23;27.63;;;;;;;9.08;89.54;99637.28;4998573;28;20185;-73
2021/11/04 04:17:47;;;;;;;48.60;30.47;;;;;;;9.59;88.34;99648.09;4998485;28;20204;-74
2021/11/04 04:20:13;;;;;;;47.20;28.67;;;;;;;9.70;87.68;99650.03;5015934;28;20699;-73
2021/11/04 04:22:38;;;;;;;44.47;29.47;;;;;;;9.33;89.28;99657.84;4998459;28;20545;-73
2021/11/04 04:25:05;;;;;;;45.13;29.43;;;;;;;9.43;88.46;99658.06;5016373;28;20177;-73
2021/11/04 04:27:30;;;;;;;41.60;27.77;;;;;;;9.74;87.27;99653.34;4998396;28;20240;-72
2021/11/04 04:29:55;;;;;;;43.77;28.57;;;;;;;9.78;86.69;99658.34;4981966;28;20200;-73
2021/11/04 04:32:21;;;;;;;44.40;29.10;;;;;;;9.82;87.40;99653.66;5015875;28;20185;-73
2021/11/04 04:34:46;;;;;;;44.30;28.17;;;;;;;9.70;87.17;99655.38;4998655;28;20685;-73
2021/11/04 04:37:11;;;;;;;49.37;29.37;;;;;;;9.55;87.59;99651.91;4998299;28;20530;-73
2021/11/04 04:39:37;;;;;;;41.33;28.20;;;;;;;9.91;87.27;99663.69;5015571;28;20205;-73
2021/11/04 04:42:04;;;;;;;41.33;27.80;;;;;;;9.94;86.44;99652.81;4998084;28;20223;-73
2021/11/04 04:44:29;;;;;;;40.73;27.17;;;;;;;9.24;88.38;99652.25;5015551;28;20260;-73
2021/11/04 04:46:54;;;;;;;40.63;27.20;;;;;;;10.01;86.66;99665.63;4998165;28;20260;-74
2021/11/04 04:49:20;;;;;;;39.07;26.00;;;;;;;9.57;86.70;99655.31;5017037;28;20213;-73
2021/11/04 04:51:45;;;;;;;36.03;25.70;;;;;;;9.71;86.90;99657.94;5015543;28;20186;-73
2021/11/04 04:54:10;;;;;;;37.13;25.30;;;;;;;9.67;87.05;99652.91;4997819;28;20200;-73
2021/11/04 04:56:36;;;;;;;36.43;25.23;;;;;;;9.75;87.23;99653.25;4998430;28;20209;-72
2021/11/04 04:59:01;;;;;;;33.87;22.77;;;;;;;9.27;87.34;99630.75;5015069;28;20571;-72
2021/11/04 05:01:27;;;;;;;36.90;24.87;;;;;;;9.49;87.83;99644.34;4997860;28;20181;-73
2021/11/04 05:03:52;;;;;;;34.30;24.33;;;;;;;9.93;86.75;99646.63;4997428;28;20171;-72
2021/11/04 05:06:18;;;;;;;35.80;25.43;;;;;;;9.24;89.14;99638.94;5015119;28;20184;-72
2021/11/04 05:08:43;;;;;;;36.03;24.17;;;;;;;9.79;87.40;99638.75;4997333;28;20201;-73
2021/11/04 05:11:08;;;;;;;34.50;23.43;;;;;;;9.40;87.35;99616.53;4981200;28;20553;-71
2021/11/04 05:13:34;;;;;;;39.27;24.50;;;;;;;9.46;88.21;99619.72;4997425;28;20209;-73
2021/11/04 05:15:59;;;;;;;33.10;23.37;;;;;;;9.74;85.52;99614.22;5014628;28;20236;-73
2021/11/04 05:18:24;;;;;;;36.53;23.23;;;;;;;9.22;88.15;99606.22;4980830;28;20572;-71
2021/11/04 05:20:50;;;;;;;38.27;22.90;;;;;;;9.97;85.11;99616.16;4980883;28;20545;-72
2021/11/04 05:23:15;;;;;;;35.43;23.60;;;;;;;9.63;86.68;99598.97;5014772;28;20177;-73
2021/11/04 05:25:40;;;;;;;33.70;23.13;;;;;;;9.77;86.67;99618.50;4997751;28;20204;-74
2021/11/04 05:28:06;;;;;;;32.90;22.50;;;;;;;9.59;87.94;99609.94;4997961;28;20185;-73
2021/11/04 05:30:31;;;;;;;36.80;24.60;;;;;;;9.64;87.58;99615.78;4997390;28;20200;-73
2021/11/04 05:32:57;;;;;;;36.47;24.13;;;;;;;9.54;88.46;99617.38;4997130;28;20628;-73
2021/11/04 05:35:22;;;;;;;34.63;24.20;;;;;;;9.80;86.40;99612.94;4997484;28;20596;-73
2021/11/04 05:37:47;;;;;;;35.87;22.53;;;;;;;10.07;86.10;99620.84;4980593;28;20181;-74
2021/11/04 05:40:13;;;;;;;34.20;23.27;;;;;;;10.22;85.48;99620.66;5014585;28;20235;-74
2021/11/04 05:42:38;;;;;;;38.40;25.40;;;;;;;9.66;87.16;99606.78;4996871;28;20226;-75
2021/11/04 05:45:04;;;;;;;39.10;26.60;;;;;;;9.47;89.30;99602.78;4996959;28;20169;-74
2021/11/04 05:47:30;;;;;;;36.77;24.47;;;;;;;9.94;87.00;99599.50;4997064;28;20243;-72
2021/11/04 05:49:55;;;;;;;41.47;26.83;;;;;;;9.59;88.07;99589.47;5014151;28;20216;-73
2021/11/04 05:52:20;;;;;;;37.00;25.00;;;;;;;9.52;89.08;99590.84;4996833;28;20195;-70
2021/11/04 05:54:46;;;;;;;40.37;24.43;;;;;;;9.12;90.07;99581.19;4996772;28;20194;-71
2021/11/04 05:57:11;;;;;;;39.27;25.73;;;;;;;9.54;90.05;99578.28;4996707;28;20638;-72
2021/11/04 05:59:37;;;;;;;40.30;25.40;;;;;;;9.69;88.39;99571.94;4996536;28;20196;-73
2021/11/04 06:02:02;;;;;;;32.87;23.00;;;;;;;9.99;86.36;99581.38;5014168;28;20237;-72
2021/11/04 06:04:34;;;;;;;37.80;24.53;;;;;;;9.75;87.86;99575.97;4997250;28;20173;-72
2021/11/04 06:06:59;;;;;;;38.87;25.57;;;;;;;9.74;88.27;99578.75;5014011;28;20228;-72
2021/11/04 06:09:24;;;;;;;38.07;24.53;;;;;;;9.91;87.91;99576.59;4996462;28;20585;-72
2021/11/04 06:11:50;;;;;;;32.37;24.07;;;;;;;9.90;87.40;99577.56;5014607;28;20177;-73
2021/11/04 06:14:16;;;;;;;34.40;23.87;;;;;;;9.90;87.40;99571.38;4996525;28;20210;-68
2021/11/04 06:16:41;;;;;;;37.67;24.67;;;;;;;9.62;88.09;99565.28;5013612;28;20553;-67
2021/11/04 06:19:06;;;;;;;38.73;25.23;;;;;;;9.61;88.94;99565.41;5013239;28;20201;-67
2021/11/04 06:21:31;;;;;;;33.00;22.63;;;;;;;9.37;87.92;99559.94;4996057;28;20173;-67
2021/11/04 06:23:57;;;;;;;36.77;24.53;;;;;;;9.45;88.03;99562.94;4995974;28;20541;-68
2021/11/04 06:26:22;;;;;;;34.23;24.10;;;;;;;9.98;87.01;99575.19;4995290;28;20181;-68
2021/11/04 06:28:47;;;;;;;36.57;22.53;;;;;;;9.64;87.97;99581.16;5013227;28;20193;-70
2021/11/04 06:31:13;;;;;;;33.90;23.37;;;;;;;9.95;87.22;99577.22;5013443;28;20247;-70
2021/11/04 06:33:38;;;;;;;32.50;22.03;;;;;;;10.03;86.50;99585.53;4979536;28;20206;-69
2021/11/04 06:36:03;;;;;;;32.90;21.50;;;;;;;10.19;85.26;99574.66;4995552;28;20185;-70
2021/11/04 06:38:31;;;;;;;31.87;21.93;;;;;;;9.94;86.15;99575.53;4995758;28;20216;-69
2021/11/04 06:40:56;;;;;;;34.13;22.20;;;;;;;9.61;87.06;99568.91;5013440;28;20180;-70
2021/11/04 06:43:22;;;;;;;35.27;22.63;;;;;;;9.85;87.32;99585.03;4996190;28;20190;-70
2021/11/04 06:45:49;;;;;;;33.20;22.17;;;;;;;10.05;86.48;99583.66;4996062;28;20272;-70
2021/11/04 06:48:22;;;;;;;31.87;22.23;;;;;;;10.38;84.50;99582.22;4995968;28;20183;-70
2021/11/04 06:50:48;;;;;;;31.20;21.83;;;;;;;10.32;85.66;99575.50;4996340;28;20197;-70
2021/11/04 06:53:14;;;;;;;33.20;22.73;;;;;;;10.16;86.08;99572.22;4995863;28;20294;-69
2021/11/04 06:55:43;;;;;;;31.50;21.87;;;;;;;10.13;86.99;99572.44;4979484;28;20264;-69
2021/11/04 06:58:14;;;;;;;34.43;21.53;;;;;;;10.12;85.58;99557.41;4996489;28;20193;-69
2021/11/04 07:00:43;;;;;;;38.03;21.73;;;;;;;10.51;84.19;99569.72;4995725;28;20239;-70
2021/11/04 07:03:23;;;;;;;29.70;21.50;;;;;;;10.22;85.39;99564.66;5012907;28;20173;-70
2021/11/04 07:05:55;;;;;;;33.83;21.33;;;;;;;10.39;84.92;99563.44;4995911;28;20207;-69
2021/11/04 07:08:22;;;;;;;32.93;22.17;;;;;;;10.19;85.28;99556.84;4996273;28;20227;-70
2021/11/04 07:10:49;;;;;;;34.40;22.80;;;;;;;10.36;85.11;99546.81;5012770;28;20251;-70
2021/11/04 07:13:14;;;;;;;30.53;20.17;;;;;;;9.78;88.36;99535.78;4995157;28;20697;-69
2021/11/04 07:15:41;;;;;;;33.77;21.73;;;;;;;9.95;86.84;99521.25;4995661;28;20205;-71
2021/11/04 07:18:08;;;;;;;32.03;21.13;;;;;;;10.21;85.65;99520.28;4978931;28;20180;-70
2021/11/04 07:20:34;;;;;;;33.03;21.40;;;;;;;10.41;85.60;99528.69;4995182;28;20181;-69
2021/11/04 07:23:01;;;;;;;35.50;22.70;;;;;;;10.03;87.11;99517.09;4995457;28;20668;-70
2021/11/04 07:25:28;;;;;;;31.73;22.00;;;;;;;10.45;86.68;99536.34;5012760;28;20190;-69
2021/11/04 07:27:56;;;;;;;36.63;21.13;;;;;;;10.38;86.72;99531.53;4995541;28;20184;-71
2021/11/04 07:30:22;;;;;;;31.73;20.23;;;;;;;9.87;86.66;99503.16;5013342;28;20204;-69
2021/11/04 07:32:59;;;;;;;33.73;20.83;;;;;;;10.57;87.25;99526.59;4979059;28;20215;-69
2021/11/04 07:35:30;;;;;;;34.40;21.13;;;;;;;10.58;85.49;99514.94;4995082;28;20639;-69
2021/11/04 07:37:56;;;;;;;33.97;22.27;;;;;;;10.85;85.15;99525.41;4995598;28;20180;-70
2021/11/04 07:40:24;;;;;;;33.57;21.27;;;;;;;10.88;84.47;99525.16;4998811;28;20207;-70
2021/11/04 07:42:50;;;;;;;34.23;22.40;;;;;;;10.33;86.52;99511.38;5016954;28;20191;-69
2021/11/04 07:45:16;;;;;;;33.07;21.27;;;;;;;10.21;85.61;99501.63;4983164;28;20223;-72
2021/11/04 07:47:43;;;;;;;33.53;21.93;;;;;;;10.65;86.60;99524.19;5016698;28;20686;-71
2021/11/04 07:50:10;;;;;;;34.43;21.43;;;;;;;10.68;86.24;99521.28;5016131;28;20242;-70
2021/11/04 07:52:37;;;;;;;32.07;21.10;;;;;;;10.59;86.30;99513.97;5016284;28;20647;-69
2021/11/04 07:55:04;;;;;;;33.80;21.87;;;;;;;10.74;86.24;99510.16;4998549;28;20227;-69
2021/11/04 07:57:29;;;;;;;31.57;22.07;;;;;;;10.47;86.16;99496.22;4998699;28;20196;-70
2021/11/04 07:59:55;;;;;;;32.93;21.90;;;;;;;10.71;86.55;99513.06;5016327;28;20672;-71
2021/11/04 08:02:20;;;;;;;33.13;21.47;;;;;;;10.16;88.03;99498.41;4998834;28;20218;-69
2021/11/04 08:04:45;;;;;;;35.27;21.80;;;;;;;10.29;85.84;99485.06;5016053;28;20255;-69
2021/11/04 08:07:10;;;;;;;32.00;22.40;;;;;;;10.81;85.25;99495.41;5016499;28;20227;-70
2021/11/04 08:09:36;;;;;;;32.90;22.43;;;;;;;10.81;84.36;99484.75;4998408;28;20198;-70
2021/11/04 08:12:02;;;;;;;34.73;22.03;;;;;;;10.93;83.39;99483.81;4998336;28;20652;-71
2021/11/04 08:14:27;;;;;;;34.77;22.70;;;;;;;10.61;85.85;99480.03;5016010;28;20208;-69
2021/11/04 08:16:52;;;;;;;39.10;24.10;;;;;;;10.70;84.62;99476.66;4998526;28;20176;-69
2021/11/04 08:19:18;;;;;;;34.53;22.80;;;;;;;10.85;84.61;99472.88;5016201;28;20203;-70
2021/11/04 08:21:43;;;;;;;34.50;22.60;;;;;;;9.94;89.19;99469.75;4998316;28;20268;-69
2021/11/04 08:24:09;;;;;;;35.47;23.47;;;;;;;10.28;86.17;99460.22;4998183;28;20179;-70
2021/11/04 08:26:34;;;;;;;36.50;23.20;;;;;;;11.06;84.88;99474.84;4998619;28;20187;-70
2021/11/04 08:29:01;;;;;;;32.37;21.87;;;;;;;10.73;83.01;99459.56;5016165;28;20205;-70
2021/11/04 08:31:28;;;;;;;35.10;24.37;;;;;;;10.89;84.94;99465.47;5015717;28;20173;-70
2021/11/04 08:33:53;;;;;;;35.73;24.67;;;;;;;10.31;86.55;99462.66;4997990;28;20201;-69
2021/11/04 08:36:18;;;;;;;38.47;25.33;;;;;;;10.64;85.86;99463.78;5015313;28;20191;-71
2021/11/04 08:38:44;;;;;;;36.50;25.30;;;;;;;10.31;86.04;99448.47;5015718;28;20665;-68
2021/11/04 08:41:09;;;;;;;37.27;24.93;;;;;;;10.93;84.61;99454.44;5015763;28;20227;-69
2021/11/04 08:43:34;;;;;;;36.63;25.60;;;;;;;10.31;85.65;99435.13;5016435;28;20200;-69
2021/11/04 08:46:00;;;;;;;37.63;25.57;;;;;;;10.68;84.86;99454.59;4998205;28;20253;-70
2021/11/04 08:48:25;;;;;;;37.80;23.93;;;;;;;10.30;87.08;99438.75;4997861;28;20216;-70
2021/11/04 08:50:50;;;;;;;35.43;23.70;;;;;;;10.47;86.09;99429.53;4997487;28;20541;-70
2021/11/04 08:53:16;;;;;;;40.70;26.20;;;;;;;10.53;87.83;99437.91;4997780;28;20220;-69
2021/11/04 08:55:42;;;;;;;47.57;27.80;;;;;;;11.12;85.19;99445.00;5015482;28;20198;-69
2021/11/04 08:58:07;;;;;;;41.27;25.50;;;;;;;11.20;83.99;99434.63;5015341;28;20632;-70
2021/11/04 09:00:33;;;;;;;39.80;24.70;;;;;;;11.38;85.05;99435.84;4998417;28;20176;-70
2021/11/04 09:02:58;;;;;;;37.57;25.27;;;;;;;11.49;83.83;99438.50;4997802;28;20173;-69
2021/11/04 09:05:23;;;;;;;43.10;26.87;;;;;;;11.27;84.85;99427.81;4997948;28;20655;-69
2021/11/04 09:07:49;;;;;;;36.03;24.27;;;;;;;11.46;83.86;99425.41;5015066;28;20513;-70
2021/11/04 09:10:15;;;;;;;36.80;25.03;;;;;;;11.75;82.72;99428.44;4997406;28;20597;-69
2021/11/04 09:12:41;;;;;;;40.50;24.17;;;;;;;11.67;83.99;99425.53;4997957;28;20180;-69
2021/11/04 09:15:08;;;;;;;34.27;24.27;;;;;;;10.76;86.36;99401.47;4997731;28;20207;-69
2021/11/04 09:17:34;;;;;;;34.57;24.33;;;;;;;11.09;85.24;99399.84;4981310;28;20198;-69
2021/11/04 09:19:59;;;;;;;38.77;24.53;;;;;;;10.91;85.90;99404.81;5014870;28;20629;-69
2021/11/04 09:22:25;;;;;;;43.80;26.03;;;;;;;11.53;85.57;99418.63;4997303;28;20216;-70
2021/11/04 09:24:51;;;;;;;39.47;26.13;;;;;;;11.33;85.78;99411.31;4997541;28;20219;-70
2021/11/04 09:27:17;;;;;;;37.07;25.53;;;;;;;11.01;86.24;99399.59;4996861;28;20177;-69
2021/11/04 09:29:42;;;;;;;41.53;25.73;;;;;;;11.40;86.07;99411.66;5014580;28;20205;-70
2021/11/04 09:32:09;;;;;;;38.40;24.63;;;;;;;10.96;87.15;99415.97;4997348;28;20211;-70
2021/11/04 09:34:34;;;;;;;40.87;24.40;;;;;;;11.76;85.01;99421.28;4997135;28;20225;-70
2021/11/04 09:37:00;;;;;;;34.23;25.03;;;;;;;11.16;86.53;99395.78;4997359;28;20176;-69
2021/11/04 09:39:26;;;;;;;34.70;23.60;;;;;;;11.73;85.19;99419.69;5014298;28;20201;-69
2021/11/04 09:41:51;;;;;;;36.10;23.37;;;;;;;11.40;85.03;99403.66;4997654;28;20181;-70
2021/11/04 09:44:20;;;;;;;35.47;24.90;;;;;;;11.58;84.28;99397.72;5014769;28;20509;-69
2021/11/04 09:46:45;;;;;;;35.20;23.97;;;;;;;11.61;85.09;99399.31;4996605;28;20180;-70
2021/11/04 09:49:10;;;;;;;32.73;23.57;;;;;;;11.07;86.19;99386.63;4996821;28;20213;-69
2021/11/04 09:51:36;;;;;;;31.83;22.43;;;;;;;11.83;83.96;99391.28;4997099;28;20542;-71
2021/11/04 09:54:02;;;;;;;36.03;23.33;;;;;;;12.01;82.83;99388.94;5014160;28;20205;-70
2021/11/04 09:56:28;;;;;;;36.60;24.40;;;;;;;12.11;83.09;99387.22;4996431;28;20192;-69
2021/11/04 09:58:53;;;;;;;35.63;22.97;;;;;;;11.53;84.69;99370.53;5013995;28;20197;-69
2021/11/04 10:01:27;;;;;;;35.57;23.10;;;;;;;11.46;85.86;99376.44;4996581;28;20176;-69
2021/11/04 10:03:54;;;;;;;34.13;23.43;;;;;;;11.85;84.57;99361.75;4996612;28;20165;-68
2021/11/04 10:06:24;;;;;;;34.20;22.90;;;;;;;11.73;84.25;99360.03;4996320;28;20184;-69
2021/11/04 10:08:54;;;;;;;35.07;22.20;;;;;;;11.90;84.45;99356.91;4996644;28;20195;-70
2021/11/04 10:11:21;;;;;;;33.10;22.07;;;;;;;12.11;83.59;99344.41;4980322;28;20274;-69
2021/11/04 10:13:47;;;;;;;35.10;23.47;;;;;;;11.07;86.26;99325.22;4996756;28;20196;-70
2021/11/04 10:16:14;;;;;;;33.43;22.37;;;;;;;11.94;85.00;99331.59;5014088;28;20253;-70
2021/11/04 10:18:45;;;;;;;34.67;23.17;;;;;;;11.60;85.33;99322.78;4996738;28;20660;-70
2021/11/04 10:21:10;;;;;;;35.23;22.53;;;;;;;11.25;85.59;99313.09;5013776;28;20174;-69
2021/11/04 10:23:44;;;;;;;37.83;24.17;;;;;;;11.88;83.93;99324.06;5013758;28;20176;-70
2021/11/04 10:26:30;;;;;;;32.90;24.00;;;;;;;11.20;87.40;99309.09;4980047;28;20181;-69
2021/11/04 10:29:01;;;;;;;37.57;24.03;;;;;;;11.81;85.11;99314.84;4996228;28;20220;-70
2021/11/04 10:31:35;;;;;;;33.53;21.63;;;;;;;11.02;87.99;99292.69;5014031;28;20176;-69
2021/11/04 10:34:01;;;;;;;34.17;23.90;;;;;;;11.58;86.17;99285.50;4980414;28;20199;-70
2021/11/04 10:36:27;;;;;;;38.50;25.63;;;;;;;10.86;89.31;99269.03;4996187;28;20188;-70
2021/11/04 10:38:58;;;;;;;41.47;27.40;;;;;;;10.95;88.91;99267.47;4996429;28;20273;-70
2021/11/04 10:41:35;;;;;;;41.70;26.93;;;;;;;11.05;87.76;99256.91;5013709;28;20533;-70
2021/11/04 10:44:12;;;;;;;40.67;27.17;;;;;;;11.13;89.43;99259.78;5013412;28;20222;-69
2021/11/04 10:46:53;;;;;;;42.27;26.90;;;;;;;11.12;87.95;99252.75;4996232;28;20187;-70
2021/11/04 10:49:22;;;;;;;42.10;26.80;;;;;;;10.98;89.54;99240.53;4997710;28;20211;-73
2021/11/04 10:52:07;;;;;;;36.30;25.23;;;;;;;11.54;86.63;99235.09;4997362;28;20181;-73
2021/11/04 10:54:48;;;;;;;39.53;23.50;;;;;;;10.69;87.38;99213.47;5014083;28;20216;-73
2021/11/04 10:57:14;;;;;;;40.77;25.77;;;;;;;11.62;86.24;99234.47;4997445;28;20545;-73
2021/11/04 10:59:47;;;;;;;40.77;26.03;;;;;;;11.09;86.61;99220.97;4997000;28;20204;-73
2021/11/04 11:02:13;;;;;;;40.17;27.43;;;;;;;11.62;87.40;99226.44;4981282;28;20177;-73
2021/11/04 11:04:38;;;;;;;40.57;25.67;;;;;;;11.20;87.46;99202.28;5007395;28;20169;-73
2021/11/04 11:07:04;;;;;;;42.17;27.33;;;;;;;11.06;89.51;99206.03;5013939;28;20633;-73
2021/11/04 11:09:31;;;;;;;45.37;27.70;;;;;;;10.75;91.59;99196.13;5013959;28;20196;-73
2021/11/04 11:11:59;;;;;;;41.53;27.53;;;;;;;11.43;88.70;99198.56;4980484;28;20203;-73
2021/11/04 11:14:26;;;;;;;40.00;25.87;;;;;;;10.99;88.06;99167.47;5017600;28;20210;-74
2021/11/04 11:16:53;;;;;;;45.50;28.70;;;;;;;11.72;88.29;99188.13;5000949;28;20210;-73
2021/11/04 11:19:33;;;;;;;44.30;27.30;;;;;;;10.83;90.17;99170.53;5001164;28;20201;-73